Aérodrome de Figeac - Livernon

LFCF · Lot, Occitanie, 法国

使用的TAF站离机场有47 km的距离
2024年5月25日 08:002024年5月25日 17:00有效
时间
星期六
08:00
星期六
09:00
星期六
10:00
星期六
11:00
星期六
12:00
星期六
13:00
星期六
14:00
星期六
15:00
星期六
16:00
代码
VFR
VFR
VFR
VFR
VFR
VFR
VFR
VFR
VFR
天气
天空晴朗
天空晴朗
天空晴朗
天空晴朗
天空晴朗
天空晴朗
天空晴朗
天空晴朗
天空晴朗
能见度
10 km+
10 km+
10 km+
10 km+
10 km+
10 km+
10 km+
10 km+
10 km+
天花板
-
-
-
-
-
-
-
-
-
130°
130°
130°
130°
130°
130°
130°
130°
130°
130°
130°
130°
130°
130°
130°
130°
130°
130°
速度
5 kt
5 kt
5 kt
5 kt
5 kt
5 kt
5 kt
5 kt
5 kt
阵风
温度/星期日

原版的

TAF LFSL 250500Z 2506/2515 13005KT CAVOK

TAF Aérodrome de Figeac - Livernon

Aérodrome de Figeac - Livernon是,法国中的小机场。 该机场位于纬度44,67241和经度1,78795。 该机场有一条跑道: 11/29. 本场的ICAO机场代码为LFCF。 机场在Bordeaux FIR中。

该航空气象观测是针对Brive-Souillac在2024年5月25日 07:00, 当地时间进行的。 从2024年5月25日 08:00到2024年5月25日 17:00, 当地时间有效.

预报

  • 在星期六 08:00和17:00之间

    • 风: 风来自130°方向,速度为5 kt。
    • CAVOK: 天气为CAVOK。这意味着在5.000 ft或MSA(最低安全高度)以下(以较高者为准)以下没有云。这也意味着没有观测到积雨云或高耸的积云,可见度为10 km 或者更多或更高。此外,不会有雾,降雨或其他重要天气。

白天

今天,太阳从06:14升起,在21:25降落。 这适用于Aérodrome de Figeac - Livernon,世界夏令时可能有所不同。 当地时间与世界标准时间之间的时差为+2 小时。 夏令时目前正在进行中。

报告变更